sensor_id;sensor_type;location;lat;lon;timestamp;P1;durP1;ratioP1;P2;durP2;ratioP2
53271;SDS011;39160;48.580;7.756;2023-11-19T00:02:05;2.22;;;1.10;;
53271;SDS011;39160;48.580;7.756;2023-11-19T00:06:58;1.45;;;1.05;;
53271;SDS011;39160;48.580;7.756;2023-11-19T00:11:53;1.30;;;0.90;;
53271;SDS011;39160;48.580;7.756;2023-11-19T00:16:44;1.65;;;1.08;;
53271;SDS011;39160;48.580;7.756;2023-11-19T00:21:34;1.77;;;1.13;;
53271;SDS011;39160;48.580;7.756;2023-11-19T00:26:26;1.30;;;0.93;;
53271;SDS011;39160;48.580;7.756;2023-11-19T00:31:17;1.70;;;1.00;;
53271;SDS011;39160;48.580;7.756;2023-11-19T00:36:08;1.38;;;0.98;;
53271;SDS011;39160;48.580;7.756;2023-11-19T00:40:58;1.73;;;1.00;;
53271;SDS011;39160;48.580;7.756;2023-11-19T00:45:49;2.22;;;1.40;;
53271;SDS011;39160;48.580;7.756;2023-11-19T00:50:40;1.70;;;1.10;;
53271;SDS011;39160;48.580;7.756;2023-11-19T00:55:34;1.52;;;0.90;;
53271;SDS011;39160;48.580;7.756;2023-11-19T01:00:25;1.15;;;0.90;;
53271;SDS011;39160;48.580;7.756;2023-11-19T01:05:17;2.42;;;1.00;;
53271;SDS011;39160;48.580;7.756;2023-11-19T01:10:11;1.58;;;0.90;;
53271;SDS011;39160;48.580;7.756;2023-11-19T01:15:02;1.15;;;0.90;;
53271;SDS011;39160;48.580;7.756;2023-11-19T01:19:52;4.35;;;1.15;;
53271;SDS011;39160;48.580;7.756;2023-11-19T01:24:43;1.40;;;0.98;;
53271;SDS011;39160;48.580;7.756;2023-11-19T01:29:34;1.23;;;0.88;;
53271;SDS011;39160;48.580;7.756;2023-11-19T01:34:24;1.25;;;0.70;;
53271;SDS011;39160;48.580;7.756;2023-11-19T01:39:15;2.47;;;0.80;;
53271;SDS011;39160;48.580;7.756;2023-11-19T01:44:06;1.38;;;1.10;;
53271;SDS011;39160;48.580;7.756;2023-11-19T01:48:57;1.40;;;0.80;;
53271;SDS011;39160;48.580;7.756;2023-11-19T01:53:47;2.58;;;0.85;;
53271;SDS011;39160;48.580;7.756;2023-11-19T01:58:39;1.70;;;0.90;;
53271;SDS011;39160;48.580;7.756;2023-11-19T02:03:31;1.95;;;0.80;;
53271;SDS011;39160;48.580;7.756;2023-11-19T02:08:23;1.17;;;0.93;;
53271;SDS011;39160;48.580;7.756;2023-11-19T02:13:14;2.03;;;0.85;;
53271;SDS011;39160;48.580;7.756;2023-11-19T02:23:09;1.80;;;0.75;;
53271;SDS011;39160;48.580;7.756;2023-11-19T02:28:01;1.42;;;0.82;;
53271;SDS011;39160;48.580;7.756;2023-11-19T02:32:53;1.27;;;1.00;;
53271;SDS011;39160;48.580;7.756;2023-11-19T02:37:47;1.63;;;0.93;;
53271;SDS011;39160;48.580;7.756;2023-11-19T02:42:38;0.77;;;0.70;;
53271;SDS011;39160;48.580;7.756;2023-11-19T02:47:28;1.92;;;1.05;;
53271;SDS011;39160;48.580;7.756;2023-11-19T02:52:20;1.88;;;0.98;;
53271;SDS011;39160;48.580;7.756;2023-11-19T02:57:11;2.38;;;1.02;;
53271;SDS011;39160;48.580;7.756;2023-11-19T03:02:02;1.17;;;0.52;;
53271;SDS011;39160;48.580;7.756;2023-11-19T03:06:56;1.45;;;0.93;;
53271;SDS011;39160;48.580;7.756;2023-11-19T03:11:48;2.25;;;1.08;;
53271;SDS011;39160;48.580;7.756;2023-11-19T03:16:39;1.33;;;1.00;;
53271;SDS011;39160;48.580;7.756;2023-11-19T03:21:30;1.80;;;0.90;;
53271;SDS011;39160;48.580;7.756;2023-11-19T03:26:21;1.65;;;0.75;;
53271;SDS011;39160;48.580;7.756;2023-11-19T03:31:12;2.72;;;0.80;;
53271;SDS011;39160;48.580;7.756;2023-11-19T03:36:03;0.95;;;0.60;;
53271;SDS011;39160;48.580;7.756;2023-11-19T03:40:53;0.88;;;0.55;;
53271;SDS011;39160;48.580;7.756;2023-11-19T03:45:44;0.80;;;0.50;;
53271;SDS011;39160;48.580;7.756;2023-11-19T03:50:36;0.60;;;0.60;;
53271;SDS011;39160;48.580;7.756;2023-11-19T03:55:27;1.25;;;0.60;;
53271;SDS011;39160;48.580;7.756;2023-11-19T04:00:19;1.27;;;0.70;;
53271;SDS011;39160;48.580;7.756;2023-11-19T04:05:11;1.00;;;0.40;;
53271;SDS011;39160;48.580;7.756;2023-11-19T04:10:01;0.95;;;0.75;;
53271;SDS011;39160;48.580;7.756;2023-11-19T04:14:52;0.90;;;0.60;;
53271;SDS011;39160;48.580;7.756;2023-11-19T04:19:43;0.85;;;0.60;;
53271;SDS011;39160;48.580;7.756;2023-11-19T04:24:36;1.08;;;0.98;;
53271;SDS011;39160;48.580;7.756;2023-11-19T04:29:28;0.47;;;0.32;;
53271;SDS011;39160;48.580;7.756;2023-11-19T04:34:21;0.73;;;0.35;;
53271;SDS011;39160;48.580;7.756;2023-11-19T04:39:11;1.55;;;0.52;;
53271;SDS011;39160;48.580;7.756;2023-11-19T04:44:04;0.98;;;0.52;;
53271;SDS011;39160;48.580;7.756;2023-11-19T04:48:54;2.00;;;0.57;;
53271;SDS011;39160;48.580;7.756;2023-11-19T04:53:45;0.30;;;0.22;;
53271;SDS011;39160;48.580;7.756;2023-11-19T04:58:35;0.65;;;0.40;;
53271;SDS011;39160;48.580;7.756;2023-11-19T05:03:27;1.55;;;0.73;;
53271;SDS011;39160;48.580;7.756;2023-11-19T05:08:17;0.70;;;0.45;;
53271;SDS011;39160;48.580;7.756;2023-11-19T05:13:08;0.65;;;0.40;;
53271;SDS011;39160;48.580;7.756;2023-11-19T05:17:58;0.60;;;0.45;;
53271;SDS011;39160;48.580;7.756;2023-11-19T05:22:49;1.55;;;0.30;;
53271;SDS011;39160;48.580;7.756;2023-11-19T05:27:41;0.63;;;0.50;;
53271;SDS011;39160;48.580;7.756;2023-11-19T05:32:32;0.40;;;0.38;;
53271;SDS011;39160;48.580;7.756;2023-11-19T05:37:22;0.57;;;0.50;;
53271;SDS011;39160;48.580;7.756;2023-11-19T05:42:13;1.33;;;0.60;;
53271;SDS011;39160;48.580;7.756;2023-11-19T05:47:04;1.33;;;0.47;;
53271;SDS011;39160;48.580;7.756;2023-11-19T05:51:54;1.55;;;0.80;;
53271;SDS011;39160;48.580;7.756;2023-11-19T05:56:48;1.30;;;0.50;;
53271;SDS011;39160;48.580;7.756;2023-11-19T06:01:39;0.88;;;0.40;;
53271;SDS011;39160;48.580;7.756;2023-11-19T06:06:31;0.77;;;0.40;;
53271;SDS011;39160;48.580;7.756;2023-11-19T06:11:22;0.93;;;0.70;;
53271;SDS011;39160;48.580;7.756;2023-11-19T06:16:13;1.23;;;0.40;;
53271;SDS011;39160;48.580;7.756;2023-11-19T06:21:04;1.25;;;0.40;;
53271;SDS011;39160;48.580;7.756;2023-11-19T06:25:54;0.35;;;0.30;;
53271;SDS011;39160;48.580;7.756;2023-11-19T06:30:45;0.57;;;0.50;;
53271;SDS011;39160;48.580;7.756;2023-11-19T06:35:36;0.32;;;0.28;;
53271;SDS011;39160;48.580;7.756;2023-11-19T06:40:26;2.15;;;0.43;;
53271;SDS011;39160;48.580;7.756;2023-11-19T06:45:17;0.20;;;0.20;;
53271;SDS011;39160;48.580;7.756;2023-11-19T06:50:08;0.13;;;0.13;;
53271;SDS011;39160;48.580;7.756;2023-11-19T06:54:59;2.20;;;0.30;;
53271;SDS011;39160;48.580;7.756;2023-11-19T06:59:50;0.57;;;0.40;;
53271;SDS011;39160;48.580;7.756;2023-11-19T07:04:40;0.15;;;0.13;;
53271;SDS011;39160;48.580;7.756;2023-11-19T07:09:31;0.47;;;0.25;;
53271;SDS011;39160;48.580;7.756;2023-11-19T07:14:22;0.75;;;0.20;;
53271;SDS011;39160;48.580;7.756;2023-11-19T07:19:13;0.10;;;0.10;;
53271;SDS011;39160;48.580;7.756;2023-11-19T07:24:05;0.30;;;0.30;;
53271;SDS011;39160;48.580;7.756;2023-11-19T07:28:57;0.22;;;0.13;;
53271;SDS011;39160;48.580;7.756;2023-11-19T07:33:48;1.58;;;0.20;;
53271;SDS011;39160;48.580;7.756;2023-11-19T07:38:39;0.15;;;0.15;;
53271;SDS011;39160;48.580;7.756;2023-11-19T07:43:30;0.22;;;0.20;;
53271;SDS011;39160;48.580;7.756;2023-11-19T07:48:20;0.30;;;0.20;;
53271;SDS011;39160;48.580;7.756;2023-11-19T07:53:13;0.20;;;0.17;;
53271;SDS011;39160;48.580;7.756;2023-11-19T07:58:04;0.20;;;0.20;;
53271;SDS011;39160;48.580;7.756;2023-11-19T08:02:54;0.35;;;0.20;;
53271;SDS011;39160;48.580;7.756;2023-11-19T08:07:45;0.25;;;0.20;;
53271;SDS011;39160;48.580;7.756;2023-11-19T08:12:36;0.20;;;0.20;;
53271;SDS011;39160;48.580;7.756;2023-11-19T08:17:27;1.25;;;0.22;;
53271;SDS011;39160;48.580;7.756;2023-11-19T08:22:18;0.25;;;0.10;;
53271;SDS011;39160;48.580;7.756;2023-11-19T08:27:08;0.15;;;0.15;;
53271;SDS011;39160;48.580;7.756;2023-11-19T08:32:00;1.00;;;0.50;;
53271;SDS011;39160;48.580;7.756;2023-11-19T08:36:52;0.50;;;0.40;;
53271;SDS011;39160;48.580;7.756;2023-11-19T08:41:45;0.52;;;0.30;;
53271;SDS011;39160;48.580;7.756;2023-11-19T08:46:36;0.80;;;0.32;;
53271;SDS011;39160;48.580;7.756;2023-11-19T08:51:27;1.75;;;0.73;;
53271;SDS011;39160;48.580;7.756;2023-11-19T08:56:18;1.38;;;0.38;;
53271;SDS011;39160;48.580;7.756;2023-11-19T09:01:09;0.22;;;0.22;;
53271;SDS011;39160;48.580;7.756;2023-11-19T09:06:02;1.77;;;0.30;;
53271;SDS011;39160;48.580;7.756;2023-11-19T09:10:53;0.47;;;0.30;;
53271;SDS011;39160;48.580;7.756;2023-11-19T09:15:43;0.55;;;0.30;;
53271;SDS011;39160;48.580;7.756;2023-11-19T09:20:34;0.63;;;0.40;;
53271;SDS011;39160;48.580;7.756;2023-11-19T09:25:28;1.13;;;0.60;;
53271;SDS011;39160;48.580;7.756;2023-11-19T09:30:19;0.52;;;0.38;;
53271;SDS011;39160;48.580;7.756;2023-11-19T09:35:10;0.88;;;0.32;;
53271;SDS011;39160;48.580;7.756;2023-11-19T09:40:03;0.45;;;0.40;;
53271;SDS011;39160;48.580;7.756;2023-11-19T09:44:54;0.77;;;0.52;;
53271;SDS011;39160;48.580;7.756;2023-11-19T09:49:50;0.60;;;0.40;;
53271;SDS011;39160;48.580;7.756;2023-11-19T09:54:42;0.57;;;0.30;;
53271;SDS011;39160;48.580;7.756;2023-11-19T09:59:33;0.55;;;0.30;;
53271;SDS011;39160;48.580;7.756;2023-11-19T10:04:23;0.68;;;0.40;;
53271;SDS011;39160;48.580;7.756;2023-11-19T10:09:15;1.15;;;0.90;;
53271;SDS011;39160;48.580;7.756;2023-11-19T10:14:09;0.82;;;0.63;;
53271;SDS011;39160;48.580;7.756;2023-11-19T10:19:03;1.15;;;0.70;;
53271;SDS011;39160;48.580;7.756;2023-11-19T10:23:57;0.70;;;0.40;;
53271;SDS011;39160;48.580;7.756;2023-11-19T10:28:49;0.68;;;0.40;;
53271;SDS011;39160;48.580;7.756;2023-11-19T10:33:40;3.63;;;0.70;;
53271;SDS011;39160;48.580;7.756;2023-11-19T10:38:32;0.98;;;0.75;;
53271;SDS011;39160;48.580;7.756;2023-11-19T10:43:24;1.45;;;0.47;;
53271;SDS011;39160;48.580;7.756;2023-11-19T10:48:15;0.63;;;0.52;;
53271;SDS011;39160;48.580;7.756;2023-11-19T10:53:06;1.35;;;0.60;;
53271;SDS011;39160;48.580;7.756;2023-11-19T10:57:59;4.00;;;1.17;;
53271;SDS011;39160;48.580;7.756;2023-11-19T11:02:54;1.57;;;1.27;;
53271;SDS011;39160;48.580;7.756;2023-11-19T11:07:50;1.35;;;0.70;;
53271;SDS011;39160;48.580;7.756;2023-11-19T11:12:45;0.93;;;0.70;;
53271;SDS011;39160;48.580;7.756;2023-11-19T11:17:36;2.88;;;0.85;;
53271;SDS011;39160;48.580;7.756;2023-11-19T11:22:29;7.93;;;4.35;;
53271;SDS011;39160;48.580;7.756;2023-11-19T11:27:37;3.10;;;2.28;;
53271;SDS011;39160;48.580;7.756;2023-11-19T11:32:45;5.43;;;2.17;;
53271;SDS011;39160;48.580;7.756;2023-11-19T11:38:00;2.35;;;1.58;;
53271;SDS011;39160;48.580;7.756;2023-11-19T11:42:56;1.90;;;0.88;;
53271;SDS011;39160;48.580;7.756;2023-11-19T11:57:49;1.00;;;0.57;;
53271;SDS011;39160;48.580;7.756;2023-11-19T12:02:39;1.13;;;0.70;;
53271;SDS011;39160;48.580;7.756;2023-11-19T12:07:30;1.88;;;0.65;;
53271;SDS011;39160;48.580;7.756;2023-11-19T12:12:21;1.45;;;0.55;;
53271;SDS011;39160;48.580;7.756;2023-11-19T12:22:27;2.03;;;0.47;;
53271;SDS011;39160;48.580;7.756;2023-11-19T12:27:18;0.82;;;0.60;;
53271;SDS011;39160;48.580;7.756;2023-11-19T12:32:08;1.02;;;0.52;;
53271;SDS011;39160;48.580;7.756;2023-11-19T12:37:02;1.27;;;0.50;;
53271;SDS011;39160;48.580;7.756;2023-11-19T12:41:54;0.60;;;0.50;;
53271;SDS011;39160;48.580;7.756;2023-11-19T12:46:45;1.83;;;0.80;;
53271;SDS011;39160;48.580;7.756;2023-11-19T12:51:35;1.02;;;0.60;;
53271;SDS011;39160;48.580;7.756;2023-11-19T12:56:29;1.48;;;0.60;;
53271;SDS011;39160;48.580;7.756;2023-11-19T13:01:20;0.57;;;0.40;;
53271;SDS011;39160;48.580;7.756;2023-11-19T13:06:12;1.70;;;0.90;;
53271;SDS011;39160;48.580;7.756;2023-11-19T13:11:04;1.20;;;0.50;;
53271;SDS011;39160;48.580;7.756;2023-11-19T13:16:02;1.20;;;0.73;;
53271;SDS011;39160;48.580;7.756;2023-11-19T13:20:55;1.45;;;0.60;;
53271;SDS011;39160;48.580;7.756;2023-11-19T13:25:47;0.70;;;0.40;;
53271;SDS011;39160;48.580;7.756;2023-11-19T13:30:38;0.70;;;0.50;;
53271;SDS011;39160;48.580;7.756;2023-11-19T13:35:29;0.60;;;0.30;;
53271;SDS011;39160;48.580;7.756;2023-11-19T13:40:20;0.90;;;0.60;;
53271;SDS011;39160;48.580;7.756;2023-11-19T13:45:13;1.27;;;0.60;;
53271;SDS011;39160;48.580;7.756;2023-11-19T13:50:05;0.40;;;0.40;;
53271;SDS011;39160;48.580;7.756;2023-11-19T13:54:56;0.40;;;0.40;;
53271;SDS011;39160;48.580;7.756;2023-11-19T13:59:46;1.23;;;0.50;;
53271;SDS011;39160;48.580;7.756;2023-11-19T14:04:37;2.38;;;0.60;;
53271;SDS011;39160;48.580;7.756;2023-11-19T14:09:28;0.60;;;0.57;;
53271;SDS011;39160;48.580;7.756;2023-11-19T14:14:19;1.08;;;0.40;;
53271;SDS011;39160;48.580;7.756;2023-11-19T14:19:10;0.43;;;0.30;;
53271;SDS011;39160;48.580;7.756;2023-11-19T14:24:00;0.60;;;0.38;;
53271;SDS011;39160;48.580;7.756;2023-11-19T14:28:51;1.95;;;0.57;;
53271;SDS011;39160;48.580;7.756;2023-11-19T14:33:42;0.65;;;0.40;;
53271;SDS011;39160;48.580;7.756;2023-11-19T14:38:33;1.30;;;0.40;;
53271;SDS011;39160;48.580;7.756;2023-11-19T14:43:23;1.00;;;0.30;;
53271;SDS011;39160;48.580;7.756;2023-11-19T14:48:14;0.82;;;0.50;;
53271;SDS011;39160;48.580;7.756;2023-11-19T14:53:08;2.55;;;0.55;;
53271;SDS011;39160;48.580;7.756;2023-11-19T14:57:59;0.52;;;0.47;;
53271;SDS011;39160;48.580;7.756;2023-11-19T15:02:50;2.08;;;0.60;;
53271;SDS011;39160;48.580;7.756;2023-11-19T15:07:40;1.23;;;0.75;;
53271;SDS011;39160;48.580;7.756;2023-11-19T15:12:31;1.45;;;0.57;;
53271;SDS011;39160;48.580;7.756;2023-11-19T15:17:22;2.35;;;1.17;;
53271;SDS011;39160;48.580;7.756;2023-11-19T15:22:13;0.90;;;0.70;;
53271;SDS011;39160;48.580;7.756;2023-11-19T15:27:04;0.90;;;0.63;;
53271;SDS011;39160;48.580;7.756;2023-11-19T15:31:55;2.42;;;0.60;;
53271;SDS011;39160;48.580;7.756;2023-11-19T15:36:46;0.90;;;0.55;;
53271;SDS011;39160;48.580;7.756;2023-11-19T15:41:36;2.92;;;0.88;;
53271;SDS011;39160;48.580;7.756;2023-11-19T15:46:27;1.42;;;1.00;;
53271;SDS011;39160;48.580;7.756;2023-11-19T15:51:18;2.00;;;1.08;;
53271;SDS011;39160;48.580;7.756;2023-11-19T15:56:18;0.82;;;0.60;;
53271;SDS011;39160;48.580;7.756;2023-11-19T16:01:10;1.88;;;0.98;;
53271;SDS011;39160;48.580;7.756;2023-11-19T16:06:01;1.30;;;0.63;;
53271;SDS011;39160;48.580;7.756;2023-11-19T16:10:52;1.40;;;0.80;;
53271;SDS011;39160;48.580;7.756;2023-11-19T16:15:43;1.67;;;0.93;;
53271;SDS011;39160;48.580;7.756;2023-11-19T16:20:34;4.22;;;1.00;;
53271;SDS011;39160;48.580;7.756;2023-11-19T16:25:24;1.25;;;1.10;;
53271;SDS011;39160;48.580;7.756;2023-11-19T16:30:15;2.47;;;0.70;;
53271;SDS011;39160;48.580;7.756;2023-11-19T16:35:06;2.42;;;0.80;;
53271;SDS011;39160;48.580;7.756;2023-11-19T16:40:00;1.63;;;1.20;;
53271;SDS011;39160;48.580;7.756;2023-11-19T16:44:51;2.55;;;1.17;;
53271;SDS011;39160;48.580;7.756;2023-11-19T16:49:42;3.20;;;1.42;;
53271;SDS011;39160;48.580;7.756;2023-11-19T16:54:33;2.08;;;0.70;;
53271;SDS011;39160;48.580;7.756;2023-11-19T16:59:23;2.65;;;1.05;;
53271;SDS011;39160;48.580;7.756;2023-11-19T17:04:14;2.17;;;0.70;;
53271;SDS011;39160;48.580;7.756;2023-11-19T17:09:06;3.80;;;1.08;;
53271;SDS011;39160;48.580;7.756;2023-11-19T17:18:53;1.13;;;0.90;;
53271;SDS011;39160;48.580;7.756;2023-11-19T17:23:43;2.17;;;0.90;;
53271;SDS011;39160;48.580;7.756;2023-11-19T17:28:34;4.07;;;1.40;;
53271;SDS011;39160;48.580;7.756;2023-11-19T17:33:25;2.30;;;1.10;;
53271;SDS011;39160;48.580;7.756;2023-11-19T17:38:16;1.42;;;0.85;;
53271;SDS011;39160;48.580;7.756;2023-11-19T17:43:07;1.35;;;0.70;;
53271;SDS011;39160;48.580;7.756;2023-11-19T17:47:58;2.10;;;1.05;;
53271;SDS011;39160;48.580;7.756;2023-11-19T17:52:49;1.25;;;0.80;;
53271;SDS011;39160;48.580;7.756;2023-11-19T17:57:40;1.92;;;0.73;;
53271;SDS011;39160;48.580;7.756;2023-11-19T18:02:32;2.38;;;0.70;;
53271;SDS011;39160;48.580;7.756;2023-11-19T18:07:23;2.20;;;1.05;;
53271;SDS011;39160;48.580;7.756;2023-11-19T18:12:13;1.80;;;0.85;;
53271;SDS011;39160;48.580;7.756;2023-11-19T18:17:04;2.38;;;1.10;;
53271;SDS011;39160;48.580;7.756;2023-11-19T18:21:55;2.78;;;1.02;;
53271;SDS011;39160;48.580;7.756;2023-11-19T18:26:47;3.97;;;1.20;;
53271;SDS011;39160;48.580;7.756;2023-11-19T18:31:38;2.38;;;0.82;;
53271;SDS011;39160;48.580;7.756;2023-11-19T18:36:35;2.10;;;0.90;;
53271;SDS011;39160;48.580;7.756;2023-11-19T18:41:26;3.63;;;0.88;;
53271;SDS011;39160;48.580;7.756;2023-11-19T18:46:18;0.77;;;0.63;;
53271;SDS011;39160;48.580;7.756;2023-11-19T18:51:09;4.28;;;2.13;;
53271;SDS011;39160;48.580;7.756;2023-11-19T18:56:04;2.00;;;0.90;;
53271;SDS011;39160;48.580;7.756;2023-11-19T19:00:56;2.63;;;1.50;;
53271;SDS011;39160;48.580;7.756;2023-11-19T19:05:47;3.33;;;0.80;;
53271;SDS011;39160;48.580;7.756;2023-11-19T19:10:38;2.05;;;1.00;;
53271;SDS011;39160;48.580;7.756;2023-11-19T19:15:29;5.47;;;1.50;;
53271;SDS011;39160;48.580;7.756;2023-11-19T19:20:20;3.08;;;1.15;;
53271;SDS011;39160;48.580;7.756;2023-11-19T19:25:13;3.38;;;0.85;;
53271;SDS011;39160;48.580;7.756;2023-11-19T19:30:04;1.50;;;0.88;;
53271;SDS011;39160;48.580;7.756;2023-11-19T19:34:56;1.58;;;0.65;;
53271;SDS011;39160;48.580;7.756;2023-11-19T19:39:47;2.22;;;1.00;;
53271;SDS011;39160;48.580;7.756;2023-11-19T19:44:37;3.28;;;0.70;;
53271;SDS011;39160;48.580;7.756;2023-11-19T19:49:28;1.20;;;0.70;;
53271;SDS011;39160;48.580;7.756;2023-11-19T19:54:20;3.13;;;0.95;;
53271;SDS011;39160;48.580;7.756;2023-11-19T19:59:14;2.35;;;0.82;;
53271;SDS011;39160;48.580;7.756;2023-11-19T20:04:04;3.42;;;0.80;;
53271;SDS011;39160;48.580;7.756;2023-11-19T20:08:55;2.85;;;1.00;;
53271;SDS011;39160;48.580;7.756;2023-11-19T20:13:46;1.90;;;0.65;;
53271;SDS011;39160;48.580;7.756;2023-11-19T20:18:37;4.40;;;1.10;;
53271;SDS011;39160;48.580;7.756;2023-11-19T20:23:28;2.28;;;0.77;;
53271;SDS011;39160;48.580;7.756;2023-11-19T20:28:19;2.05;;;0.88;;
53271;SDS011;39160;48.580;7.756;2023-11-19T20:33:09;2.17;;;1.17;;
53271;SDS011;39160;48.580;7.756;2023-11-19T20:38:00;4.00;;;0.93;;
53271;SDS011;39160;48.580;7.756;2023-11-19T20:42:53;3.00;;;0.93;;
53271;SDS011;39160;48.580;7.756;2023-11-19T20:47:44;3.65;;;0.90;;
53271;SDS011;39160;48.580;7.756;2023-11-19T20:52:39;3.23;;;0.70;;
53271;SDS011;39160;48.580;7.756;2023-11-19T20:57:31;2.60;;;0.90;;
53271;SDS011;39160;48.580;7.756;2023-11-19T21:02:21;1.60;;;0.73;;
53271;SDS011;39160;48.580;7.756;2023-11-19T21:07:13;3.60;;;1.52;;
53271;SDS011;39160;48.580;7.756;2023-11-19T21:12:04;4.97;;;0.93;;
53271;SDS011;39160;48.580;7.756;2023-11-19T21:16:55;4.20;;;1.05;;
53271;SDS011;39160;48.580;7.756;2023-11-19T21:21:50;2.45;;;1.25;;
53271;SDS011;39160;48.580;7.756;2023-11-19T21:26:40;6.72;;;1.17;;
53271;SDS011;39160;48.580;7.756;2023-11-19T21:31:32;2.85;;;0.88;;
53271;SDS011;39160;48.580;7.756;2023-11-19T21:36:22;1.98;;;1.05;;
53271;SDS011;39160;48.580;7.756;2023-11-19T21:41:14;3.67;;;0.80;;
53271;SDS011;39160;48.580;7.756;2023-11-19T21:46:05;3.03;;;1.13;;
53271;SDS011;39160;48.580;7.756;2023-11-19T21:50:56;3.47;;;1.60;;
53271;SDS011;39160;48.580;7.756;2023-11-19T21:55:47;2.75;;;0.98;;
53271;SDS011;39160;48.580;7.756;2023-11-19T22:00:41;6.97;;;1.40;;
53271;SDS011;39160;48.580;7.756;2023-11-19T22:05:32;2.97;;;0.93;;
53271;SDS011;39160;48.580;7.756;2023-11-19T22:10:22;6.38;;;1.80;;
53271;SDS011;39160;48.580;7.756;2023-11-19T22:15:13;5.18;;;1.50;;
53271;SDS011;39160;48.580;7.756;2023-11-19T22:20:07;7.60;;;1.25;;
53271;SDS011;39160;48.580;7.756;2023-11-19T22:24:58;6.53;;;1.38;;
53271;SDS011;39160;48.580;7.756;2023-11-19T22:29:50;7.28;;;1.70;;
53271;SDS011;39160;48.580;7.756;2023-11-19T22:34:41;15.45;;;1.77;;
53271;SDS011;39160;48.580;7.756;2023-11-19T22:39:32;6.78;;;1.35;;
53271;SDS011;39160;48.580;7.756;2023-11-19T22:44:23;4.88;;;1.48;;
53271;SDS011;39160;48.580;7.756;2023-11-19T22:49:18;2.92;;;1.05;;
53271;SDS011;39160;48.580;7.756;2023-11-19T22:54:09;5.35;;;1.55;;
53271;SDS011;39160;48.580;7.756;2023-11-19T22:59:00;2.95;;;1.52;;
53271;SDS011;39160;48.580;7.756;2023-11-19T23:03:50;8.13;;;1.48;;
53271;SDS011;39160;48.580;7.756;2023-11-19T23:08:41;5.65;;;1.73;;
53271;SDS011;39160;48.580;7.756;2023-11-19T23:13:32;3.05;;;1.40;;
53271;SDS011;39160;48.580;7.756;2023-11-19T23:18:23;3.70;;;1.23;;
53271;SDS011;39160;48.580;7.756;2023-11-19T23:23:15;3.58;;;1.45;;
53271;SDS011;39160;48.580;7.756;2023-11-19T23:28:05;6.47;;;1.30;;
53271;SDS011;39160;48.580;7.756;2023-11-19T23:32:56;3.65;;;1.05;;
53271;SDS011;39160;48.580;7.756;2023-11-19T23:37:47;4.47;;;1.25;;
53271;SDS011;39160;48.580;7.756;2023-11-19T23:42:37;4.07;;;1.88;;
53271;SDS011;39160;48.580;7.756;2023-11-19T23:47:30;10.90;;;2.83;;
53271;SDS011;39160;48.580;7.756;2023-11-19T23:52:22;4.53;;;1.48;;
53271;SDS011;39160;48.580;7.756;2023-11-19T23:57:12;4.22;;;1.63;;
